createdAt,value
2022-11-04T04:51:46.590Z,8.40
2022-11-04T04:54:15.485Z,8.40
2022-11-04T04:56:44.056Z,8.40
2022-11-04T04:59:12.618Z,8.40
2022-11-04T05:01:41.080Z,8.50
2022-11-04T05:04:09.446Z,8.50
2022-11-04T05:06:37.750Z,8.50
2022-11-04T05:09:08.614Z,8.50
2022-11-04T05:11:36.885Z,8.50
2022-11-04T05:14:05.174Z,8.50
2022-11-04T05:16:37.980Z,8.60
2022-11-04T05:19:08.891Z,8.60
2022-11-04T05:21:37.288Z,8.60
2022-11-04T05:24:07.310Z,8.60
2022-11-04T05:26:35.490Z,8.60
2022-11-04T05:29:03.886Z,8.60
2022-11-04T05:31:32.143Z,8.60
2022-11-04T05:34:00.443Z,8.60
2022-11-04T05:36:28.845Z,8.60
2022-11-04T05:38:58.293Z,8.60
2022-11-04T05:41:28.519Z,8.60
2022-11-04T05:43:58.580Z,8.60
2022-11-04T05:46:27.680Z,8.70
2022-11-04T05:48:56.508Z,8.70
2022-11-04T05:51:27.586Z,8.70
2022-11-04T05:53:56.242Z,8.70
2022-11-04T05:56:24.585Z,8.70
2022-11-04T05:58:54.358Z,8.60
2022-11-04T06:01:29.189Z,8.70
2022-11-04T06:03:59.272Z,8.70
2022-11-04T06:06:30.814Z,8.60
2022-11-04T06:08:59.832Z,8.60
2022-11-04T06:11:29.805Z,8.60
2022-11-04T06:14:00.603Z,8.60
2022-11-04T06:16:29.375Z,8.70
2022-11-04T06:19:01.598Z,8.70
2022-11-04T06:21:35.046Z,8.70
2022-11-04T06:24:03.650Z,8.70
2022-11-04T06:26:32.226Z,8.70
2022-11-04T06:29:02.318Z,8.70
2022-11-04T06:31:30.588Z,8.70
2022-11-04T06:33:58.988Z,8.70
2022-11-04T06:36:28.358Z,8.80
2022-11-04T06:39:01.362Z,8.80
2022-11-04T06:41:32.493Z,8.80
2022-11-04T06:44:02.261Z,8.80
2022-11-04T06:46:35.782Z,8.90
2022-11-04T06:49:05.008Z,8.90
2022-11-04T06:51:33.306Z,9.00
2022-11-04T06:54:01.735Z,9.00
2022-11-04T06:56:30.054Z,9.00
2022-11-04T06:58:58.582Z,9.00
2022-11-04T07:01:31.034Z,9.10
2022-11-04T07:04:01.337Z,9.10
2022-11-04T07:06:30.808Z,9.10
2022-11-04T07:09:00.649Z,9.10
2022-11-04T07:11:31.283Z,9.20
2022-11-04T07:14:00.620Z,9.20
2022-11-04T07:16:30.526Z,9.20
2022-11-04T07:18:58.749Z,9.20
2022-11-04T07:21:27.662Z,9.30
2022-11-04T07:23:56.079Z,9.20
2022-11-04T07:26:24.528Z,9.20
2022-11-04T07:29:01.019Z,9.20
2022-11-04T07:31:30.699Z,9.30
2022-11-04T07:33:59.149Z,9.30
2022-11-04T07:36:27.501Z,9.40
2022-11-04T07:38:56.396Z,9.40
2022-11-04T07:41:25.414Z,9.50
2022-11-04T07:43:55.028Z,9.60
2022-11-04T07:46:23.472Z,9.70
2022-11-04T07:48:53.025Z,9.70
2022-11-04T07:51:23.398Z,9.90
2022-11-04T07:53:51.918Z,10.00
2022-11-04T07:56:20.760Z,10.20
2022-11-04T07:58:49.352Z,10.30
2022-11-04T08:01:19.765Z,10.50
2022-11-04T08:03:50.021Z,10.50
2022-11-04T08:06:22.843Z,10.50
2022-11-04T08:08:54.202Z,10.50
2022-11-04T08:11:28.498Z,10.40
2022-11-04T08:13:57.326Z,10.50
2022-11-04T08:16:31.485Z,10.50
2022-11-04T08:19:02.874Z,10.60
2022-11-04T08:21:35.004Z,10.70
2022-11-04T08:24:05.476Z,10.70
2022-11-04T08:26:34.498Z,10.80
2022-11-04T08:29:03.789Z,10.80
2022-11-04T08:31:33.829Z,10.80
2022-11-04T08:34:02.906Z,10.80
2022-11-04T08:36:36.755Z,10.80
2022-11-04T08:39:10.412Z,10.80
2022-11-04T08:41:41.266Z,10.70
2022-11-04T08:44:10.320Z,10.70
2022-11-04T08:46:40.282Z,10.70
2022-11-04T08:49:11.246Z,10.80
2022-11-04T08:51:45.139Z,10.80
2022-11-04T08:54:13.547Z,10.80
2022-11-04T08:56:42.186Z,10.90
2022-11-04T08:59:12.627Z,10.90
2022-11-04T09:01:41.224Z,10.90
2022-11-04T09:04:11.828Z,10.90
2022-11-04T09:06:43.635Z,10.80
2022-11-04T09:09:14.931Z,10.80
2022-11-04T09:11:45.890Z,10.70
2022-11-04T09:14:14.720Z,10.70
2022-11-04T09:16:44.371Z,10.70
2022-11-04T09:19:13.082Z,10.80
2022-11-04T09:21:43.036Z,10.70
2022-11-04T09:24:12.572Z,10.70
2022-11-04T09:26:41.723Z,10.70
2022-11-04T09:29:10.324Z,10.70
2022-11-04T09:31:39.080Z,10.80
2022-11-04T09:34:07.820Z,10.70
2022-11-04T09:36:36.486Z,10.70
2022-11-04T09:39:06.732Z,10.70
2022-11-04T09:41:51.482Z,10.70
2022-11-04T09:44:27.387Z,10.80
2022-11-04T09:47:00.768Z,10.90
2022-11-04T09:49:31.440Z,10.90
2022-11-04T09:52:03.635Z,10.80
2022-11-04T09:54:46.781Z,10.80
2022-11-04T09:57:19.836Z,9.80
2022-11-04T09:59:49.715Z,9.90
2022-11-04T10:02:42.228Z,11.00
2022-11-04T10:05:28.842Z,10.90
2022-11-04T10:08:20.021Z,10.90
2022-11-04T10:10:56.763Z,10.80
2022-11-04T10:13:32.563Z,10.80
2022-11-04T10:16:25.805Z,10.70
2022-11-04T10:19:10.005Z,10.80
2022-11-04T10:21:48.969Z,10.70
2022-11-04T10:24:25.203Z,10.70
2022-11-04T10:27:01.995Z,10.70
2022-11-04T10:29:38.243Z,10.70
2022-11-04T10:32:21.928Z,10.60
2022-11-04T10:34:57.692Z,10.60
2022-11-04T10:37:27.725Z,10.60
2022-11-04T10:40:10.118Z,10.70
2022-11-04T10:42:41.411Z,10.70
2022-11-04T10:45:13.244Z,10.70
2022-11-04T10:47:49.195Z,10.70
2022-11-04T10:50:31.444Z,10.70
2022-11-04T10:53:13.239Z,10.60
2022-11-04T10:55:48.715Z,10.60
2022-11-04T10:58:23.883Z,10.50
2022-11-04T11:00:53.760Z,10.40
2022-11-04T11:03:29.243Z,10.40
2022-11-04T11:06:16.994Z,10.40
2022-11-04T11:08:47.611Z,10.30
2022-11-04T11:11:17.693Z,10.30
2022-11-04T11:13:48.180Z,10.40
2022-11-04T11:16:20.892Z,10.40
2022-11-04T11:19:14.435Z,10.50
2022-11-04T11:21:48.243Z,10.50
2022-11-04T11:24:26.253Z,10.60
2022-11-04T11:26:56.928Z,10.60
2022-11-04T11:29:30.155Z,10.60
2022-11-04T11:32:00.988Z,10.50
2022-11-04T11:34:33.394Z,10.50
2022-11-04T11:37:05.355Z,10.60
2022-11-04T11:39:36.076Z,10.60
2022-11-04T11:42:07.610Z,10.60
2022-11-04T11:44:44.699Z,10.70
2022-11-04T11:47:22.797Z,10.80
2022-11-04T11:50:07.245Z,10.70
2022-11-04T11:52:38.726Z,10.80
2022-11-04T11:55:14.074Z,10.80
2022-11-04T12:00:50.577Z,10.80
2022-11-04T12:03:31.198Z,9.40
2022-11-04T12:06:31.731Z,10.80
2022-11-04T12:09:20.734Z,10.90
2022-11-04T12:12:23.051Z,10.80
2022-11-04T12:15:05.435Z,10.90
2022-11-04T12:17:49.843Z,10.90
2022-11-04T12:20:31.646Z,10.90
2022-11-04T12:23:07.046Z,10.90
2022-11-04T12:25:43.075Z,10.90
2022-11-04T12:28:24.564Z,10.90
2022-11-04T12:31:06.647Z,10.90
2022-11-04T12:33:43.004Z,10.90
2022-11-04T12:36:31.857Z,10.80
2022-11-04T12:39:16.055Z,10.80
2022-11-04T12:42:20.552Z,10.80
2022-11-04T12:44:44.836Z,10.70
2022-11-04T12:47:28.835Z,10.70
2022-11-04T12:50:21.835Z,10.60
2022-11-04T12:53:09.577Z,10.00
2022-11-04T12:55:48.842Z,10.60
2022-11-04T12:58:36.076Z,10.60
2022-11-04T13:01:14.059Z,10.60
2022-11-04T13:03:50.003Z,10.60
2022-11-04T13:06:25.571Z,10.60
2022-11-04T13:09:01.595Z,10.60
2022-11-04T13:11:34.839Z,10.60
2022-11-04T13:14:07.914Z,10.60
2022-11-04T13:16:41.601Z,10.60
2022-11-04T13:19:21.883Z,10.60
2022-11-04T13:21:52.840Z,10.60
2022-11-04T13:24:30.561Z,10.60
2022-11-04T13:27:01.965Z,10.60
2022-11-04T13:29:34.775Z,10.50
2022-11-04T13:32:09.532Z,10.50
2022-11-04T13:34:45.718Z,10.50
2022-11-04T13:37:25.327Z,10.40
2022-11-04T13:39:59.050Z,10.40
2022-11-04T13:42:49.739Z,10.30
2022-11-04T13:45:20.646Z,10.30
2022-11-04T13:47:53.514Z,10.30
2022-11-04T13:50:35.691Z,10.20
2022-11-04T13:53:10.874Z,10.20
2022-11-04T13:55:51.235Z,10.20
2022-11-04T13:58:25.454Z,10.20
2022-11-04T14:01:13.888Z,10.20
2022-11-04T14:03:54.525Z,10.20
2022-11-04T14:06:55.282Z,10.20
2022-11-04T14:09:51.635Z,10.30
2022-11-04T14:12:35.740Z,10.40
2022-11-04T14:15:14.402Z,10.50
2022-11-04T14:18:01.884Z,10.50
2022-11-04T14:20:38.324Z,10.50
2022-11-04T14:23:17.484Z,10.60
2022-11-04T14:26:02.561Z,10.60
2022-11-04T14:28:37.880Z,10.60
2022-11-04T14:31:15.845Z,10.60
2022-11-04T14:33:56.324Z,10.70
2022-11-04T14:36:33.078Z,10.60
2022-11-04T14:39:06.036Z,10.60
2022-11-04T14:41:56.445Z,10.50
2022-11-04T14:44:34.844Z,10.50
2022-11-04T14:47:16.448Z,10.40
2022-11-04T14:49:48.560Z,10.30
2022-11-04T14:52:27.887Z,10.20
2022-11-04T14:55:03.958Z,10.20
2022-11-04T14:57:41.731Z,10.20
2022-11-04T15:00:30.433Z,10.10
2022-11-04T15:03:07.523Z,10.10
2022-11-04T15:05:38.121Z,10.10
